Time;durP1;ratioP1;P1;durP2;ratioP2;P2;SDS_P1;SDS_P2;PMS_P1;PMS_P2;Temp;Humidity;BMP_temperature;BMP_pressure;BME280_temperature;BME280_humidity;BME280_pressure;Samples;Min_cycle;Max_cycle;Signal;HPM_P1;HPM_P2
2024/04/09 00:07:48;;;;;;;4.80;1.80;;;;;;;12.48;64.88;98782.55;273263;1278;22379;-85
2024/04/09 00:14:47;;;;;;;3.10;1.70;;;;;;;12.42;66.52;98783.18;273487;1278;22274;-85
2024/04/09 00:21:14;;;;;;;4.20;1.80;;;;;;;12.23;67.29;98784.48;273560;1278;22262;-85
2024/04/09 00:34:38;;;;;;;3.40;1.60;;;;;;;11.86;68.48;98771.58;273585;1270;22291;-85
2024/04/09 00:40:58;;;;;;;3.70;2.00;;;;;;;11.80;69.57;98769.35;273328;1276;22275;-86
2024/04/09 00:47:27;;;;;;;2.70;1.70;;;;;;;11.69;70.48;98771.98;273329;1275;22501;-85
2024/04/09 01:00:33;;;;;;;2.80;1.50;;;;;;;11.34;71.65;98769.48;273254;1272;23139;-86
2024/04/09 01:07:25;;;;;;;3.30;1.80;;;;;;;11.22;72.14;98762.86;273164;1272;22419;-85
2024/04/09 01:13:54;;;;;;;4.00;2.00;;;;;;;11.08;73.63;98763.27;273503;1269;23315;-85
2024/04/09 01:27:55;;;;;;;3.60;1.80;;;;;;;10.72;74.44;98767.02;273554;1272;23069;-85
2024/04/09 01:34:47;;;;;;;4.30;2.40;;;;;;;10.58;74.55;98774.50;273322;1272;22272;-85
2024/04/09 01:49:08;;;;;;;3.10;2.00;;;;;;;10.38;76.58;98771.46;273430;1272;22237;-85
2024/04/09 01:55:09;;;;;;;3.80;1.90;;;;;;;10.21;77.28;98766.79;273277;1270;22297;-85
2024/04/09 02:01:14;;;;;;;3.00;2.10;;;;;;;10.07;77.84;98769.30;273182;1257;90764;-90
2024/04/09 02:07:20;;;;;;;3.40;2.30;;;;;;;10.05;78.55;98765.89;272640;1272;23620;-88
2024/04/09 02:13:25;;;;;;;3.90;1.90;;;;;;;9.95;78.68;98767.83;272833;1270;23123;-88
2024/04/09 02:19:26;;;;;;;3.50;2.20;;;;;;;9.85;79.39;98763.97;272751;1272;22349;-87
2024/04/09 02:25:28;;;;;;;5.60;2.40;;;;;;;9.78;80.14;98760.85;272570;1270;22224;-89
2024/04/09 02:31:33;;;;;;;4.80;2.40;;;;;;;9.73;80.71;98758.08;272599;1272;23019;-86
2024/04/09 02:38:39;;;;;;;6.20;2.60;;;;;;;9.64;80.23;98760.95;262500;1306;544899;-87
2024/04/09 02:44:44;;;;;;;3.50;2.50;;;;;;;9.54;81.55;98755.61;268412;1282;22569;-90
2024/04/09 02:51:03;;;;;;;3.30;2.20;;;;;;;9.52;82.37;98761.52;268598;1272;304768;-89
2024/04/09 02:57:07;;;;;;;4.90;2.70;;;;;;;9.43;83.29;98763.84;269616;1279;22517;-87
2024/04/09 03:03:10;;;;;;;4.30;2.50;;;;;;;9.38;83.68;98760.96;269277;1278;22531;-87
2024/04/09 03:09:16;;;;;;;6.20;3.10;;;;;;;9.34;84.18;98761.30;269436;1277;22569;-89
2024/04/09 03:15:22;;;;;;;5.00;2.50;;;;;;;9.26;84.62;98762.69;269314;1276;22545;-86
2024/04/09 03:21:34;;;;;;;6.20;3.30;;;;;;;9.25;85.51;98757.13;268922;1279;22535;-90
2024/04/09 03:27:36;;;;;;;4.50;2.70;;;;;;;9.20;85.66;98752.93;268632;1277;22554;-88
2024/04/09 03:34:05;;;;;;;3.50;2.50;;;;;;;9.13;86.22;98749.88;268970;1276;24962;-87
2024/04/09 03:40:08;;;;;;;6.20;2.40;;;;;;;9.14;86.89;98750.59;269222;1277;23358;-86
2024/04/09 03:46:25;;;;;;;4.50;2.70;;;;;;;9.11;87.05;98748.36;269770;1277;22549;-88
2024/04/09 03:52:32;;;;;;;4.20;2.60;;;;;;;9.01;87.51;98744.65;269404;1279;22323;-87
2024/04/09 03:58:50;;;;;;;4.00;3.00;;;;;;;8.91;88.05;98746.63;269445;1277;24076;-90
2024/04/09 04:04:55;;;;;;;6.00;2.80;;;;;;;8.85;88.23;98748.79;269343;1278;22721;-89
2024/04/09 04:11:03;;;;;;;6.30;2.70;;;;;;;8.75;88.37;98751.79;269286;1277;22531;-87
2024/04/09 04:17:05;;;;;;;5.00;3.20;;;;;;;8.78;89.65;98749.48;269242;1279;22618;-87
2024/04/09 04:23:09;;;;;;;8.50;3.40;;;;;;;8.79;89.92;98750.11;269089;1277;23398;-86
2024/04/09 04:29:12;;;;;;;5.10;3.70;;;;;;;8.76;90.28;98748.44;269144;1279;22530;-86
2024/04/09 04:35:16;;;;;;;9.40;3.50;;;;;;;8.79;91.34;98742.80;270186;1272;23800;-88
2024/04/09 04:41:18;;;;;;;14.60;4.00;;;;;;;8.87;91.84;98745.41;269990;1270;22316;-85
2024/04/09 04:47:20;;;;;;;5.70;3.00;;;;;;;8.96;92.04;98745.52;269893;1272;25584;-87
2024/04/09 04:53:25;;;;;;;6.70;3.80;;;;;;;9.05;92.85;98747.83;270186;1273;22548;-87
2024/04/09 04:59:27;;;;;;;8.00;5.00;;;;;;;9.21;93.09;98749.52;270307;1273;22510;-88
2024/04/09 05:05:29;;;;;;;10.90;5.70;;;;;;;9.45;93.64;98746.37;270570;1272;22554;-88
2024/04/09 05:11:31;;;;;;;9.30;4.10;;;;;;;9.76;94.46;98745.54;270220;1273;22652;-88
2024/04/09 05:17:33;;;;;;;8.50;3.50;;;;;;;10.07;94.78;98749.05;270011;1270;25346;-86
2024/04/09 05:23:35;;;;;;;12.20;4.70;;;;;;;10.38;95.12;98746.11;270147;1273;24269;-87
2024/04/09 05:29:44;;;;;;;12.40;4.90;;;;;;;10.68;95.06;98744.15;270181;1272;22585;-90
2024/04/09 05:35:48;;;;;;;18.70;5.10;;;;;;;10.95;95.03;98750.20;269932;1272;22953;-88
2024/04/09 05:41:52;;;;;;;13.00;7.50;;;;;;;11.20;94.65;98760.88;270128;1272;23745;-91
2024/04/09 05:47:56;;;;;;;17.50;6.70;;;;;;;11.57;94.47;98760.89;270247;1272;23190;-89
2024/04/09 05:54:45;;;;;;;20.10;7.90;;;;;;;12.13;94.57;98762.52;270033;1273;22527;-90
2024/04/09 06:01:18;;;;;;;23.30;8.40;;;;;;;12.72;93.15;98754.82;270421;1272;22537;-90
2024/04/09 06:07:53;;;;;;;16.20;7.70;;;;;;;13.14;92.12;98753.20;270501;1270;22305;-89
2024/04/09 06:13:56;;;;;;;20.50;6.70;;;;;;;13.50;92.33;98754.96;271172;1269;22647;-89
2024/04/09 06:20:00;;;;;;;15.60;6.50;;;;;;;13.98;91.98;98753.83;270852;1269;22703;-89
2024/04/09 06:26:23;;;;;;;11.40;6.00;;;;;;;14.46;91.22;98744.29;271293;1268;22593;-88
2024/04/09 06:32:27;;;;;;;14.60;6.60;;;;;;;14.79;90.28;98737.95;270899;1268;26680;-90
2024/04/09 06:38:37;;;;;;;17.30;5.60;;;;;;;15.09;90.29;98735.34;270732;1269;22510;-89
2024/04/09 06:45:07;;;;;;;16.20;5.50;;;;;;;15.42;90.01;98731.59;271329;1267;23441;-89
2024/04/09 06:51:13;;;;;;;14.70;4.90;;;;;;;15.81;89.50;98728.55;271293;1266;23699;-90
2024/04/09 06:57:59;;;;;;;14.10;5.40;;;;;;;16.31;88.88;98730.71;270912;1266;23677;-87
2024/04/09 07:04:14;;;;;;;12.20;4.90;;;;;;;16.75;88.07;98720.68;271618;1267;22510;-87
2024/04/09 07:10:53;;;;;;;16.00;5.10;;;;;;;17.15;87.25;98715.75;271321;1261;22579;-89
2024/04/09 07:17:02;;;;;;;12.60;4.30;;;;;;;17.47;86.20;98712.49;271132;1266;23367;-91
2024/04/09 07:23:46;;;;;;;12.20;3.90;;;;;;;17.84;85.53;98707.66;270921;1267;22629;-93
2024/04/09 07:30:03;;;;;;;11.80;4.00;;;;;;;18.25;85.07;98708.92;270752;1266;23302;-92
2024/04/09 07:37:26;;;;;;;10.60;3.50;;;;;;;18.90;83.34;98697.59;270745;1266;23348;-86
2024/04/09 07:44:04;;;;;;;11.90;3.80;;;;;;;19.53;81.01;98691.48;270332;1266;22737;-86
2024/04/09 07:50:11;;;;;;;13.10;3.40;;;;;;;19.88;78.88;98687.80;269909;1267;22552;-86
2024/04/09 08:03:32;;;;;;;12.70;3.40;;;;;;;20.90;76.36;98683.94;262319;1304;545033;-89
2024/04/09 08:09:35;;;;;;;7.50;2.60;;;;;;;21.61;74.78;98681.49;267742;1281;22721;-88
2024/04/09 08:31:27;;;;;;;5.80;1.50;;;;;;;23.27;59.05;98664.41;267992;1296;130674;-87
2024/04/09 08:53:30;;;;;;;4.20;1.90;;;;;;;23.92;50.43;98640.87;268750;1287;22367;-84
2024/04/09 09:16:28;;;;;;;;;;;;;;;;;;;;;
2024/04/09 09:23:42;;;;;;;6.90;1.50;;;;;;;25.35;41.21;98628.55;265746;1296;23003;-84
2024/04/09 10:41:14;;;;;;;6.50;1.50;;;;;;;30.60;36.17;98548.05;270629;1287;23136;-86
2024/04/09 12:08:15;;;;;;;5.10;1.50;;;;;;;30.55;26.41;98451.23;268074;1295;22233;-84
2024/04/09 12:15:25;;;;;;;5.40;1.50;;;;;;;30.21;26.10;98437.64;271491;1282;22426;-84
2024/04/09 12:23:12;;;;;;;5.20;1.50;;;;;;;30.20;26.66;98429.60;269471;1281;24707;-84
2024/04/09 12:38:48;;;;;;;6.30;1.70;;;;;;;30.06;26.51;98411.53;269118;1294;22197;-84
2024/04/09 12:46:05;;;;;;;4.20;1.10;;;;;;;30.60;26.42;98400.77;268868;1295;22317;-84
2024/04/09 12:53:09;;;;;;;9.70;1.60;;;;;;;30.98;25.84;98395.67;265608;1299;22366;-85
2024/04/09 13:08:50;;;;;;;10.50;1.70;;;;;;;30.62;25.12;98391.67;266335;1303;22266;-85
2024/04/09 13:15:34;;;;;;;5.90;1.70;;;;;;;30.22;26.17;98382.02;265968;1300;545063;-82
2024/04/09 13:21:36;;;;;;;12.50;2.10;;;;;;;30.19;26.03;98380.08;269860;1282;22565;-84
2024/04/09 13:27:40;;;;;;;11.70;2.60;;;;;;;29.89;25.75;98378.58;263623;1280;10144484;-83
2024/04/09 13:34:07;;;;;;;12.90;2.10;;;;;;;29.48;25.46;98376.55;271745;1278;22278;-84
2024/04/09 13:40:11;;;;;;;14.20;2.80;;;;;;;28.94;25.01;98372.63;271925;1280;23388;-84
2024/04/09 13:46:16;;;;;;;11.90;3.60;;;;;;;28.76;24.81;98369.27;271584;1282;22295;-84
2024/04/09 13:52:18;;;;;;;11.60;2.70;;;;;;;28.87;25.05;98364.02;270221;1280;22572;-84
2024/04/09 13:58:21;;;;;;;12.70;2.90;;;;;;;28.92;24.16;98360.89;269994;1279;22271;-84
2024/04/09 14:04:23;;;;;;;14.30;2.80;;;;;;;28.86;24.16;98357.67;269335;1272;23560;-85
2024/04/09 14:10:26;;;;;;;11.00;2.80;;;;;;;28.83;24.28;98358.23;269231;1280;22654;-84
2024/04/09 14:16:29;;;;;;;21.00;2.80;;;;;;;28.75;23.76;98360.60;270138;1279;22666;-84
2024/04/09 14:22:31;;;;;;;13.50;2.90;;;;;;;28.47;24.14;98359.40;269027;1280;23570;-84
2024/04/09 14:28:58;;;;;;;10.90;3.00;;;;;;;28.10;24.28;98358.09;271647;1282;22195;-85
2024/04/09 14:35:00;;;;;;;13.50;2.90;;;;;;;27.78;24.49;98361.64;270170;1277;22572;-84
2024/04/09 14:41:02;;;;;;;12.80;2.80;;;;;;;27.60;24.85;98358.86;272355;1285;22323;-84
2024/04/09 14:47:51;;;;;;;12.00;1.90;;;;;;;27.58;24.93;98358.74;272334;1281;22290;-86
2024/04/09 14:54:28;;;;;;;14.40;2.60;;;;;;;27.62;25.18;98362.71;271507;1276;22400;-85
2024/04/09 15:00:31;;;;;;;8.70;2.40;;;;;;;27.70;25.58;98353.33;272228;1279;22293;-85
2024/04/09 15:07:20;;;;;;;9.70;2.30;;;;;;;27.72;25.54;98349.24;272235;1285;23396;-86
2024/04/09 15:13:26;;;;;;;15.50;2.90;;;;;;;27.75;25.93;98350.90;270161;1285;22309;-86
2024/04/09 15:19:39;;;;;;;13.10;2.20;;;;;;;27.72;26.59;98343.63;270858;1292;22262;-86
2024/04/09 15:26:06;;;;;;;9.80;2.10;;;;;;;27.68;26.96;98339.69;270909;1284;22473;-84
2024/04/09 15:32:09;;;;;;;16.80;1.90;;;;;;;27.64;26.83;98336.80;271001;1286;22456;-85
2024/04/09 15:38:30;;;;;;;12.50;2.30;;;;;;;27.66;26.73;98338.65;270356;1285;24962;-85
2024/04/09 15:44:51;;;;;;;8.60;1.80;;;;;;;27.65;26.81;98334.96;271579;1279;22238;-84
2024/04/09 15:51:45;;;;;;;12.70;1.70;;;;;;;27.57;27.29;98333.05;272469;1281;23044;-84
2024/04/09 15:57:47;;;;;;;7.00;2.00;;;;;;;27.39;27.53;98334.65;272231;1286;22224;-85
2024/04/09 16:04:28;;;;;;;9.80;1.50;;;;;;;27.23;27.77;98334.14;271815;1276;23022;-85
2024/04/09 16:10:30;;;;;;;7.70;2.00;;;;;;;26.95;28.50;98335.64;270561;1277;22570;-85
2024/04/09 16:16:50;;;;;;;4.40;1.80;;;;;;;26.54;29.21;98343.77;271252;1276;22736;-84
2024/04/09 16:23:16;;;;;;;7.50;1.90;;;;;;;26.04;29.67;98354.80;272618;1281;22248;-84
2024/04/09 16:29:41;;;;;;;;;;;;;;;25.68;29.67;98365.84;272013;1272;22571;-84
2024/04/09 16:36:15;;;;;;;12.40;3.40;;;;;;;25.41;29.64;98380.05;272592;1275;22982;-85
2024/04/09 16:43:38;;;;;;;15.10;6.80;;;;;;;25.15;29.66;98378.45;271853;1284;22298;-85
2024/04/09 16:50:07;;;;;;;15.70;5.30;;;;;;;25.01;30.84;98378.08;271626;1279;22413;-85
2024/04/09 16:56:53;;;;;;;9.70;4.30;;;;;;;24.64;32.00;98372.59;271109;1281;22268;-85
2024/04/09 17:02:57;;;;;;;12.10;4.80;;;;;;;24.42;32.29;98374.50;271501;1281;23597;-85
2024/04/09 17:08:59;;;;;;;8.60;2.40;;;;;;;24.11;32.47;98376.22;271815;1273;22258;-85
2024/04/09 17:15:10;;;;;;;11.00;2.50;;;;;;;23.90;32.88;98383.98;272718;1271;22319;-86
2024/04/09 17:28:20;;;;;;;11.90;3.20;;;;;;;23.61;33.83;98389.05;273629;1278;22319;-86
2024/04/09 17:34:30;;;;;;;7.70;3.30;;;;;;;23.34;34.85;98394.26;272923;1276;22232;-86
2024/04/09 17:41:07;;;;;;;7.50;2.30;;;;;;;22.98;35.74;98408.04;273187;1275;22247;-86
2024/04/09 17:48:24;;;;;;;6.40;2.10;;;;;;;22.53;36.18;98429.58;272979;1273;22215;-86
2024/04/09 17:55:33;;;;;;;13.70;3.20;;;;;;;22.12;37.32;98443.30;271504;1272;22258;-87
2024/04/09 18:01:47;;;;;;;;;;;;;;;;;;;;;
2024/04/09 18:09:16;;;;;;;14.90;5.80;;;;;;;21.38;38.41;98465.58;271878;1269;22550;-85
2024/04/09 18:15:25;;;;;;;24.70;6.00;;;;;;;21.05;39.23;98478.05;272414;1272;22333;-85
2024/04/09 18:21:44;;;;;;;20.30;4.80;;;;;;;20.63;39.51;98482.66;272791;1272;22467;-88
2024/04/09 18:27:59;;;;;;;24.40;6.70;;;;;;;20.22;40.73;98480.98;272693;1272;23733;-85
2024/04/09 18:34:16;;;;;;;17.50;7.00;;;;;;;20.01;41.72;98500.77;272680;1271;22383;-85
2024/04/09 18:40:40;;;;;;;53.90;8.50;;;;;;;19.91;41.84;98508.65;272754;1272;23417;-86
2024/04/09 18:55:21;;;;;;;14.50;6.00;;;;;;;19.43;43.47;98526.59;273244;1278;22359;-86
2024/04/09 19:01:37;;;;;;;14.20;6.60;;;;;;;19.14;44.36;98537.61;273234;1273;22338;-86
2024/04/09 19:09:11;;;;;;;;;;;;;;;;;;;;;
2024/04/09 19:15:31;;;;;;;17.50;8.00;;;;;;;18.88;45.21;98550.04;272705;1272;22283;-86
2024/04/09 19:21:35;;;;;;;18.50;7.90;;;;;;;18.83;44.85;98550.52;272441;1263;22666;-87
2024/04/09 19:28:08;;;;;;;14.00;6.60;;;;;;;18.69;44.74;98547.80;272618;1272;22578;-88
2024/04/09 19:34:25;;;;;;;24.50;6.30;;;;;;;18.64;45.23;98556.53;272532;1272;23624;-86
2024/04/09 19:40:30;;;;;;;17.90;7.20;;;;;;;18.58;45.35;98561.67;272647;1272;22438;-86
2024/04/09 19:46:51;;;;;;;20.00;4.80;;;;;;;18.42;46.13;98561.40;272676;1273;22321;-86
2024/04/09 19:53:50;;;;;;;22.40;8.40;;;;;;;18.14;47.12;98567.19;272499;1272;23697;-86
2024/04/09 20:00:17;;;;;;;13.10;3.80;;;;;;;17.93;47.95;98574.86;272649;1272;22341;-85
2024/04/09 20:07:08;;;;;;;7.30;3.30;;;;;;;17.61;49.20;98581.17;272472;1262;23406;-86
2024/04/09 20:13:41;;;;;;;15.80;4.40;;;;;;;17.33;50.72;98587.33;272706;1270;22376;-86
2024/04/09 20:20:21;;;;;;;19.60;7.80;;;;;;;17.13;51.08;98595.34;272340;1270;22362;-86
2024/04/09 20:26:55;;;;;;;21.10;8.50;;;;;;;16.94;51.22;98596.86;272799;1271;22376;-87
2024/04/09 20:33:00;;;;;;;24.10;12.10;;;;;;;16.59;52.05;98598.98;272442;1270;22365;-86
2024/04/09 20:39:16;;;;;;;;;;;;;;;;;;;;;
2024/04/09 20:45:34;;;;;;;26.40;12.50;;;;;;;16.24;53.94;98614.14;270778;1270;23441;-86
2024/04/09 20:51:42;;;;;;;16.70;7.40;;;;;;;16.17;54.87;98615.02;270575;1270;23370;-86
2024/04/09 21:05:10;;;;;;;21.20;11.00;;;;;;;15.72;56.01;98620.20;272003;1270;22696;-86
2024/04/09 21:11:56;;;;;;;17.70;7.00;;;;;;;15.56;56.88;98622.23;270277;1270;23369;-86
2024/04/09 21:18:29;;;;;;;15.70;5.50;;;;;;;15.32;57.63;98635.56;270407;1270;22657;-88
2024/04/09 21:24:31;;;;;;;10.00;4.50;;;;;;;15.07;58.71;98649.04;272384;1269;23081;-86
2024/04/09 21:30:35;;;;;;;12.20;6.20;;;;;;;14.92;59.11;98657.25;272546;1257;22423;-85
2024/04/09 21:36:49;;;;;;;22.40;7.00;;;;;;;14.81;59.80;98668.88;273105;1269;22305;-87
2024/04/09 21:42:58;;;;;;;26.20;6.50;;;;;;;14.66;60.15;98672.43;272575;1269;22574;-87
2024/04/09 21:49:06;;;;;;;23.60;6.40;;;;;;;14.49;60.78;98680.31;273168;1269;22385;-85
2024/04/09 21:55:20;;;;;;;11.50;4.60;;;;;;;14.38;62.10;98688.83;272965;1267;23438;-86
2024/04/09 22:01:32;;;;;;;11.00;4.70;;;;;;;14.32;62.86;98691.80;272647;1269;23468;-86
2024/04/09 22:07:37;;;;;;;16.60;7.10;;;;;;;14.31;65.19;98692.98;273179;1269;22487;-88
2024/04/09 22:13:39;;;;;;;14.40;5.00;;;;;;;14.22;65.68;98699.34;273317;1269;22391;-88
2024/04/09 22:19:43;;;;;;;10.70;4.30;;;;;;;14.03;66.90;98699.70;272306;1269;23407;-86
2024/04/09 22:26:28;;;;;;;12.40;5.30;;;;;;;13.86;67.44;98698.16;271714;1269;22538;-86
2024/04/09 22:32:30;;;;;;;13.40;5.10;;;;;;;13.71;66.84;98701.17;270578;1264;23498;-87
2024/04/09 22:39:15;;;;;;;13.70;4.50;;;;;;;13.58;67.58;98706.44;270968;1268;22288;-86
2024/04/09 22:45:18;;;;;;;15.30;5.30;;;;;;;13.52;68.58;98713.55;273907;1276;22288;-86
2024/04/09 22:52:00;;;;;;;14.30;4.90;;;;;;;13.38;69.14;98722.41;273047;1264;22366;-86
2024/04/09 22:58:05;;;;;;;12.90;4.80;;;;;;;13.25;70.12;98721.14;273753;1272;22331;-86
2024/04/09 23:04:07;;;;;;;25.20;11.60;;;;;;;13.18;70.58;98718.56;272429;1260;23158;-86
2024/04/09 23:10:11;;;;;;;12.80;4.90;;;;;;;13.06;70.98;98720.80;272156;1270;23032;-86
2024/04/09 23:23:37;;;;;;;19.90;8.70;;;;;;;12.72;72.91;98720.16;273538;1277;22334;-87
2024/04/09 23:29:40;;;;;;;15.00;5.70;;;;;;;12.64;73.34;98722.60;273312;1272;22254;-86
2024/04/09 23:36:07;;;;;;;12.90;5.70;;;;;;;12.57;74.32;98722.29;271939;1269;22463;-86
2024/04/09 23:42:12;;;;;;;10.00;4.60;;;;;;;12.44;74.38;98721.29;272758;1270;22641;-86
2024/04/09 23:48:14;;;;;;;7.50;4.50;;;;;;;12.37;75.51;98722.55;271706;1269;23415;-86
2024/04/09 23:55:06;;;;;;;9.20;3.60;;;;;;;12.39;77.15;98729.77;271106;1269;22356;-87
